createdAt,value
2023-01-15T00:01:03.562Z,7.62
2023-01-15T00:03:30.313Z,7.60
2023-01-15T00:05:56.619Z,7.76
2023-01-15T00:08:22.898Z,7.61
2023-01-15T00:10:49.192Z,7.53
2023-01-15T00:13:15.646Z,7.54
2023-01-15T00:15:43.639Z,7.53
2023-01-15T00:18:10.067Z,7.45
2023-01-15T00:20:36.416Z,7.44
2023-01-15T00:23:02.733Z,7.34
2023-01-15T00:25:29.074Z,7.38
2023-01-15T00:27:55.395Z,7.36
2023-01-15T00:30:21.894Z,7.30
2023-01-15T00:32:49.592Z,7.28
2023-01-15T00:35:17.506Z,7.32
2023-01-15T00:37:43.845Z,7.25
2023-01-15T00:40:10.841Z,7.28
2023-01-15T00:42:37.144Z,7.24
2023-01-15T00:45:03.810Z,7.19
2023-01-15T00:47:30.179Z,7.17
2023-01-15T00:49:57.872Z,7.13
2023-01-15T00:52:24.203Z,7.12
2023-01-15T00:54:50.521Z,7.13
2023-01-15T00:57:16.863Z,7.10
2023-01-15T00:59:43.171Z,7.09
2023-01-15T01:02:09.534Z,7.08
2023-01-15T01:04:35.883Z,7.08
2023-01-15T01:07:03.573Z,7.10
2023-01-15T01:09:30.057Z,7.09
2023-01-15T01:11:56.389Z,7.08
2023-01-15T01:14:22.908Z,7.14
2023-01-15T01:16:49.251Z,7.08
2023-01-15T01:19:16.535Z,7.10
2023-01-15T01:21:43.311Z,7.07
2023-01-15T01:24:11.791Z,7.09
2023-01-15T01:26:38.169Z,7.05
2023-01-15T01:29:04.668Z,7.03
2023-01-15T01:31:31.153Z,7.03
2023-01-15T01:33:58.453Z,7.03
2023-01-15T01:36:27.624Z,7.00
2023-01-15T01:38:53.957Z,7.04
2023-01-15T01:41:21.614Z,7.03
2023-01-15T01:43:55.865Z,7.03
2023-01-15T01:46:22.231Z,7.03
2023-01-15T01:48:49.577Z,7.04
2023-01-15T01:51:16.535Z,7.04
2023-01-15T01:53:43.296Z,7.00
2023-01-15T01:56:10.394Z,7.03
2023-01-15T01:58:38.928Z,7.03
2023-01-15T02:01:05.698Z,7.04
2023-01-15T02:03:35.353Z,7.05
2023-01-15T02:06:03.493Z,7.07
2023-01-15T02:08:29.797Z,7.05
2023-01-15T02:10:56.483Z,7.06
2023-01-15T02:13:26.702Z,7.05
2023-01-15T02:15:57.310Z,7.05
2023-01-15T02:18:26.816Z,7.05
2023-01-15T02:20:55.712Z,7.02
2023-01-15T02:23:33.689Z,7.05
2023-01-15T02:26:12.225Z,7.01
2023-01-15T02:28:41.542Z,6.97
2023-01-15T02:31:10.601Z,6.97
2023-01-15T02:33:38.475Z,6.98
2023-01-15T02:36:07.698Z,6.97
2023-01-15T02:38:36.799Z,6.98
2023-01-15T02:41:05.430Z,6.93
2023-01-15T02:43:33.784Z,6.92
2023-01-15T02:46:03.538Z,6.93
2023-01-15T02:48:32.371Z,6.95
2023-01-15T02:51:00.857Z,6.94
2023-01-15T02:53:29.206Z,6.89
2023-01-15T02:55:58.026Z,6.89
2023-01-15T02:58:28.487Z,6.86
2023-01-15T03:00:56.530Z,6.86
2023-01-15T03:03:30.950Z,6.89
2023-01-15T03:05:59.532Z,6.91
2023-01-15T03:08:26.165Z,6.90
2023-01-15T03:10:58.344Z,6.88
2023-01-15T03:13:29.384Z,6.88
2023-01-15T03:15:58.383Z,6.89
2023-01-15T03:18:28.303Z,6.85
2023-01-15T03:20:58.785Z,6.89
2023-01-15T03:23:26.243Z,6.94
2023-01-15T03:25:52.941Z,6.88
2023-01-15T03:28:21.652Z,6.93
2023-01-15T03:30:48.102Z,6.91
2023-01-15T03:33:14.570Z,6.92
2023-01-15T03:35:45.707Z,6.91
2023-01-15T03:38:12.171Z,6.86
2023-01-15T03:40:40.697Z,6.85
2023-01-15T03:43:09.680Z,6.89
2023-01-15T03:45:37.504Z,6.89
2023-01-15T03:48:10.920Z,6.87
2023-01-15T03:50:39.913Z,7.04
2023-01-15T03:53:11.248Z,7.02
2023-01-15T03:55:41.342Z,6.97
2023-01-15T03:58:10.875Z,6.98
2023-01-15T04:00:38.861Z,6.95
2023-01-15T04:03:07.175Z,6.93
2023-01-15T04:05:34.605Z,6.90
2023-01-15T04:08:01.303Z,6.91
2023-01-15T04:10:29.016Z,6.93
2023-01-15T04:12:55.313Z,6.94
2023-01-15T04:15:21.612Z,6.98
2023-01-15T04:17:47.920Z,7.02
2023-01-15T04:20:14.314Z,6.97
2023-01-15T04:22:40.651Z,6.96
2023-01-15T04:25:07.615Z,6.96
2023-01-15T04:27:35.315Z,6.92
2023-01-15T04:30:01.783Z,6.93
2023-01-15T04:32:28.144Z,6.95
2023-01-15T04:34:54.587Z,6.94
2023-01-15T04:37:20.907Z,6.92
2023-01-15T04:39:47.218Z,6.93
2023-01-15T04:42:14.132Z,6.98
2023-01-15T04:44:41.795Z,7.02
2023-01-15T04:47:08.142Z,7.15
2023-01-15T04:49:34.647Z,7.15
2023-01-15T04:52:00.978Z,7.11
2023-01-15T04:54:27.353Z,7.24
2023-01-15T04:56:54.526Z,7.34
2023-01-15T04:59:21.753Z,7.26
2023-01-15T05:02:02.462Z,7.27
2023-01-15T05:04:30.578Z,7.26
2023-01-15T05:06:56.976Z,7.32
2023-01-15T05:09:23.281Z,7.24
2023-01-15T05:11:49.589Z,7.19
2023-01-15T05:14:15.968Z,7.21
2023-01-15T05:16:42.238Z,7.19
2023-01-15T05:19:10.666Z,7.22
2023-01-15T05:21:39.598Z,7.23
2023-01-15T05:24:06.855Z,7.24
2023-01-15T05:26:33.608Z,7.22
2023-01-15T05:29:00.538Z,7.25
2023-01-15T05:31:27.336Z,7.16
2023-01-15T05:33:54.368Z,7.14
2023-01-15T05:36:22.684Z,7.22
2023-01-15T05:38:49.148Z,7.21
2023-01-15T05:41:16.554Z,7.25
2023-01-15T05:43:42.851Z,7.24
2023-01-15T05:46:09.179Z,7.16
2023-01-15T05:48:35.534Z,7.30
2023-01-15T05:51:01.960Z,7.23
2023-01-15T05:53:29.591Z,7.22
2023-01-15T05:55:55.896Z,7.23
2023-01-15T05:58:22.192Z,7.17
2023-01-15T06:00:48.494Z,7.16
2023-01-15T06:03:14.823Z,7.23
2023-01-15T06:05:41.134Z,7.20
2023-01-15T06:08:07.433Z,7.19
2023-01-15T06:10:35.085Z,7.21
2023-01-15T06:13:01.394Z,7.16
2023-01-15T06:15:27.713Z,7.14
2023-01-15T06:17:54.025Z,7.12
2023-01-15T06:20:20.346Z,7.27
2023-01-15T06:22:48.836Z,7.09
2023-01-15T06:25:15.223Z,7.10
2023-01-15T06:27:42.835Z,7.09
2023-01-15T06:30:09.845Z,7.07
2023-01-15T06:32:36.142Z,7.21
2023-01-15T06:35:02.483Z,7.05
2023-01-15T06:37:28.792Z,7.14
2023-01-15T06:39:55.107Z,7.05
2023-01-15T06:42:21.377Z,7.04
2023-01-15T06:44:49.062Z,7.00
2023-01-15T06:47:16.502Z,6.92
2023-01-15T06:49:42.829Z,6.90
2023-01-15T06:52:09.142Z,6.87
2023-01-15T06:54:35.416Z,6.87
2023-01-15T06:57:01.739Z,6.80
2023-01-15T06:59:28.135Z,6.80
2023-01-15T07:01:55.804Z,6.81
2023-01-15T07:04:22.274Z,6.79
2023-01-15T07:06:48.579Z,6.91
2023-01-15T07:09:14.916Z,6.89
2023-01-15T07:11:41.239Z,6.88
2023-01-15T07:14:07.560Z,6.86
2023-01-15T07:16:33.958Z,6.74
2023-01-15T07:19:01.919Z,6.84
2023-01-15T07:21:28.770Z,6.99
2023-01-15T07:23:58.214Z,7.08
2023-01-15T07:26:24.560Z,7.03
2023-01-15T07:28:50.850Z,6.96
2023-01-15T07:31:17.235Z,6.99
2023-01-15T07:33:43.592Z,6.99
2023-01-15T07:36:11.311Z,6.94
2023-01-15T07:38:37.624Z,6.83
2023-01-15T07:41:03.991Z,6.82
2023-01-15T07:43:30.311Z,6.74
2023-01-15T07:45:57.009Z,6.80
2023-01-15T07:48:23.316Z,6.73
2023-01-15T07:50:49.592Z,6.76
2023-01-15T07:53:17.263Z,6.64
2023-01-15T07:55:43.613Z,6.70
2023-01-15T07:58:09.900Z,6.47
2023-01-15T08:00:36.195Z,6.46
2023-01-15T08:03:02.516Z,6.45
2023-01-15T08:05:28.868Z,6.53
2023-01-15T08:07:55.234Z,6.39
2023-01-15T08:10:22.966Z,6.40
2023-01-15T08:12:49.952Z,6.37
2023-01-15T08:15:16.302Z,6.37
2023-01-15T08:17:43.723Z,6.27
2023-01-15T08:20:11.751Z,6.25
2023-01-15T08:22:38.078Z,6.12
2023-01-15T08:25:04.832Z,6.14
2023-01-15T08:27:33.532Z,6.00
2023-01-15T08:30:00.016Z,6.06
2023-01-15T08:32:26.334Z,6.07
2023-01-15T08:34:52.640Z,5.92
2023-01-15T08:37:18.945Z,6.02
2023-01-15T08:39:45.254Z,5.93
2023-01-15T08:42:11.598Z,5.97
2023-01-15T08:44:39.315Z,5.89
2023-01-15T08:47:05.645Z,5.98
2023-01-15T08:49:31.932Z,5.98
2023-01-15T08:51:58.241Z,5.96
2023-01-15T08:54:24.628Z,6.02
2023-01-15T08:56:51.035Z,6.03
2023-01-15T08:59:17.379Z,6.04
2023-01-15T09:01:45.121Z,6.06
2023-01-15T09:04:13.491Z,6.10
2023-01-15T09:06:39.772Z,6.17
2023-01-15T09:09:06.077Z,6.13
2023-01-15T09:11:32.401Z,6.16
2023-01-15T09:13:58.743Z,6.17
2023-01-15T09:16:25.064Z,6.17
2023-01-15T09:18:52.754Z,6.22
2023-01-15T09:21:19.079Z,6.31
2023-01-15T09:23:45.429Z,6.33
2023-01-15T09:26:24.823Z,6.48
2023-01-15T09:28:51.137Z,6.36
2023-01-15T09:31:17.535Z,6.42
2023-01-15T09:33:43.894Z,6.45
2023-01-15T09:36:15.709Z,6.48
2023-01-15T09:38:42.029Z,6.44
2023-01-15T09:41:10.065Z,6.53
2023-01-15T09:43:50.207Z,6.57
2023-01-15T09:46:19.536Z,6.71
2023-01-15T09:48:52.549Z,6.76
2023-01-15T09:51:27.253Z,6.80
2023-01-15T09:54:00.544Z,6.91
2023-01-15T09:56:28.178Z,6.96
2023-01-15T09:58:56.021Z,7.00
2023-01-15T10:01:25.678Z,7.09
2023-01-15T10:03:57.143Z,7.04
2023-01-15T10:06:26.190Z,7.11
2023-01-15T10:08:59.428Z,7.07
2023-01-15T10:11:29.181Z,7.08
2023-01-15T10:13:59.628Z,7.03
2023-01-15T10:16:27.465Z,7.02
2023-01-15T10:18:54.721Z,7.12
2023-01-15T10:21:28.270Z,7.28
2023-01-15T10:23:58.404Z,7.33
2023-01-15T10:26:31.315Z,7.24
2023-01-15T10:28:59.079Z,7.30
2023-01-15T10:31:31.556Z,7.40
2023-01-15T10:34:03.483Z,7.50
2023-01-15T10:36:35.753Z,7.52
2023-01-15T10:39:05.213Z,7.36
2023-01-15T10:41:37.499Z,7.48
2023-01-15T10:44:08.998Z,7.42
2023-01-15T10:46:37.138Z,7.45
2023-01-15T10:49:05.184Z,7.60
2023-01-15T10:51:37.338Z,7.57
2023-01-15T10:54:05.859Z,7.77
2023-01-15T10:56:33.925Z,7.69
2023-01-15T10:59:04.124Z,7.74
2023-01-15T11:01:31.016Z,7.66
2023-01-15T11:03:57.441Z,7.49
2023-01-15T11:06:23.960Z,7.59
2023-01-15T11:09:10.431Z,7.44
2023-01-15T11:11:40.057Z,7.75
2023-01-15T11:14:06.365Z,7.63
2023-01-15T11:16:32.760Z,7.66
2023-01-15T11:19:01.559Z,7.58
2023-01-15T11:21:28.572Z,7.58
2023-01-15T11:23:57.526Z,7.51
2023-01-15T11:26:25.400Z,7.61
2023-01-15T11:28:52.586Z,7.49
2023-01-15T11:31:19.286Z,7.50
2023-01-15T11:33:55.622Z,7.62
2023-01-15T11:36:23.032Z,7.67
2023-01-15T11:38:50.454Z,7.69
2023-01-15T11:41:19.844Z,7.56
2023-01-15T11:43:53.348Z,7.63
2023-01-15T11:46:23.715Z,7.71
2023-01-15T11:48:50.079Z,7.53
2023-01-15T11:51:17.400Z,7.62
2023-01-15T11:53:45.239Z,7.64
2023-01-15T11:56:13.422Z,7.55
2023-01-15T11:58:44.757Z,7.74
2023-01-15T12:01:12.479Z,7.74
2023-01-15T12:03:40.523Z,7.69
2023-01-15T12:06:09.357Z,7.77
2023-01-15T12:08:43.515Z,7.66
2023-01-15T12:11:26.323Z,7.66
2023-01-15T12:14:00.987Z,7.66
2023-01-15T12:16:30.404Z,7.56
2023-01-15T12:18:58.647Z,7.60
2023-01-15T12:21:33.645Z,7.61
2023-01-15T12:24:08.696Z,7.61
2023-01-15T12:26:37.068Z,7.67
2023-01-15T12:29:11.565Z,7.56
2023-01-15T12:31:39.911Z,7.59
2023-01-15T12:34:12.523Z,7.57
2023-01-15T12:36:40.073Z,7.63
2023-01-15T12:39:12.250Z,7.58
2023-01-15T12:41:41.085Z,7.51
2023-01-15T12:44:09.862Z,7.48
2023-01-15T12:46:39.119Z,7.52
2023-01-15T12:49:09.979Z,7.61
2023-01-15T12:51:40.808Z,7.62
2023-01-15T12:54:11.097Z,7.52
2023-01-15T12:56:43.466Z,7.49
2023-01-15T12:59:16.721Z,7.52
2023-01-15T13:01:48.962Z,7.49
2023-01-15T13:04:18.253Z,7.57
2023-01-15T13:06:46.840Z,7.58
2023-01-15T13:09:19.428Z,7.67
2023-01-15T13:11:45.735Z,7.65
2023-01-15T13:14:15.315Z,7.58
2023-01-15T13:16:45.498Z,7.72
2023-01-15T13:19:21.834Z,7.64
2023-01-15T13:21:49.776Z,7.55
2023-01-15T13:24:34.077Z,7.61
2023-01-15T13:27:07.925Z,7.62
2023-01-15T13:29:40.674Z,7.62
2023-01-15T13:32:12.163Z,7.67
2023-01-15T13:34:42.011Z,7.74
2023-01-15T13:37:13.834Z,7.59
2023-01-15T13:39:41.989Z,7.59
2023-01-15T13:42:15.849Z,7.60
2023-01-15T13:44:47.349Z,7.53
2023-01-15T13:47:17.638Z,7.63
2023-01-15T13:49:48.108Z,7.56
2023-01-15T13:52:20.484Z,7.59
2023-01-15T13:54:46.862Z,7.57
2023-01-15T13:57:23.025Z,7.52
2023-01-15T13:59:50.717Z,7.64
2023-01-15T14:02:27.853Z,7.65
2023-01-15T14:04:54.427Z,7.75
2023-01-15T14:07:21.746Z,7.59
2023-01-15T14:09:48.040Z,7.56
2023-01-15T14:12:20.183Z,7.60
2023-01-15T14:14:54.901Z,7.58
2023-01-15T14:17:42.958Z,7.50
2023-01-15T14:20:23.433Z,7.55
2023-01-15T14:22:56.680Z,7.48
2023-01-15T14:25:50.034Z,7.53
2023-01-15T14:28:25.041Z,7.43
2023-01-15T14:31:24.483Z,7.50
2023-01-15T14:33:58.412Z,7.58
2023-01-15T14:36:26.794Z,7.56
2023-01-15T14:38:55.609Z,7.60
2023-01-15T14:41:26.104Z,7.61
2023-01-15T14:43:52.935Z,7.50
2023-01-15T14:46:24.689Z,7.45
2023-01-15T14:48:51.008Z,7.43
2023-01-15T14:51:21.888Z,7.37
2023-01-15T14:53:50.081Z,7.54
2023-01-15T14:56:19.443Z,7.56
2023-01-15T14:58:49.032Z,7.65
2023-01-15T15:01:30.599Z,7.55
2023-01-15T15:03:58.684Z,7.59
2023-01-15T15:06:27.846Z,7.61
2023-01-15T15:08:56.857Z,7.50
2023-01-15T15:11:25.182Z,7.40
2023-01-15T15:13:52.251Z,7.34
2023-01-15T15:16:19.896Z,7.25
2023-01-15T15:18:52.289Z,7.27
2023-01-15T15:21:20.773Z,7.28
2023-01-15T15:23:53.252Z,7.16
2023-01-15T15:26:21.809Z,7.11
2023-01-15T15:29:05.905Z,7.21
2023-01-15T15:31:34.034Z,7.21
2023-01-15T15:34:03.118Z,7.17
2023-01-15T15:36:31.221Z,7.10
2023-01-15T15:39:00.032Z,7.10
2023-01-15T15:41:27.586Z,7.05
2023-01-15T15:43:56.744Z,7.13
2023-01-15T15:46:27.575Z,7.00
2023-01-15T15:48:57.292Z,7.16
2023-01-15T15:51:27.439Z,7.11
2023-01-15T15:54:03.771Z,7.12
2023-01-15T15:56:31.028Z,7.05
2023-01-15T15:58:57.373Z,7.02
2023-01-15T16:01:23.901Z,7.05
2023-01-15T16:03:50.269Z,7.07
2023-01-15T16:06:19.427Z,7.00
2023-01-15T16:08:52.229Z,7.06
2023-01-15T16:11:21.076Z,7.04
2023-01-15T16:13:49.223Z,6.98
2023-01-15T16:16:15.898Z,7.01
2023-01-15T16:18:42.975Z,6.96
2023-01-15T16:21:10.147Z,6.99
2023-01-15T16:23:36.557Z,6.88
2023-01-15T16:26:05.109Z,6.91
2023-01-15T16:28:37.368Z,6.95
2023-01-15T16:31:03.929Z,6.98
2023-01-15T16:33:30.702Z,6.85
2023-01-15T16:35:57.383Z,6.90
2023-01-15T16:38:24.116Z,6.90
2023-01-15T16:40:50.564Z,6.88
2023-01-15T16:43:18.736Z,6.88
2023-01-15T16:45:56.975Z,7.00
2023-01-15T16:48:27.063Z,7.06
2023-01-15T16:50:53.368Z,6.90
2023-01-15T16:53:37.679Z,6.85
2023-01-15T16:56:04.565Z,6.91
2023-01-15T16:58:35.763Z,6.82
2023-01-15T17:01:23.135Z,6.80
2023-01-15T17:03:52.077Z,6.81
2023-01-15T17:06:20.826Z,6.79
2023-01-15T17:08:48.517Z,6.66
2023-01-15T17:11:18.577Z,6.61
2023-01-15T17:13:44.899Z,6.75
2023-01-15T17:16:17.876Z,6.74
2023-01-15T17:18:44.310Z,6.74
2023-01-15T17:21:13.999Z,6.63
2023-01-15T17:23:40.555Z,6.52
2023-01-15T17:26:07.283Z,6.54
2023-01-15T17:28:33.619Z,6.58
2023-01-15T17:31:01.533Z,6.55
2023-01-15T17:33:29.329Z,6.72
2023-01-15T17:35:58.345Z,6.66
2023-01-15T17:38:24.644Z,6.59
2023-01-15T17:40:50.938Z,6.66
2023-01-15T17:43:17.260Z,6.70
2023-01-15T17:45:43.599Z,6.63
2023-01-15T17:48:09.949Z,6.63
2023-01-15T17:50:37.898Z,6.64
2023-01-15T17:53:05.242Z,6.58
2023-01-15T17:55:31.651Z,6.60
2023-01-15T17:57:58.077Z,6.69
2023-01-15T18:00:24.515Z,6.68
2023-01-15T18:02:50.967Z,6.60
2023-01-15T18:05:17.435Z,6.49
2023-01-15T18:07:45.312Z,6.38
2023-01-15T18:10:13.375Z,6.36
2023-01-15T18:12:42.311Z,6.33
2023-01-15T18:15:09.041Z,6.22
2023-01-15T18:17:35.377Z,6.19
2023-01-15T18:20:01.733Z,6.12
2023-01-15T18:22:28.088Z,6.10
2023-01-15T18:24:55.782Z,6.05
2023-01-15T18:27:22.291Z,6.08
2023-01-15T18:29:48.608Z,6.11
2023-01-15T18:32:14.926Z,6.06
2023-01-15T18:34:41.246Z,6.03
2023-01-15T18:37:07.549Z,6.00
2023-01-15T18:39:33.879Z,5.98
2023-01-15T18:42:01.525Z,5.98
2023-01-15T18:44:29.391Z,6.01
2023-01-15T18:46:56.549Z,6.00
2023-01-15T18:49:22.907Z,6.03
2023-01-15T18:51:49.208Z,5.93
2023-01-15T18:54:15.534Z,5.93
2023-01-15T18:56:41.877Z,5.87
2023-01-15T18:59:10.288Z,5.92
2023-01-15T19:01:37.240Z,5.86
2023-01-15T19:04:04.097Z,5.86
2023-01-15T19:06:30.422Z,5.82
2023-01-15T19:08:57.963Z,5.77
2023-01-15T19:11:24.345Z,5.73
2023-01-15T19:13:50.679Z,5.72
2023-01-15T19:16:18.376Z,5.70
2023-01-15T19:18:45.864Z,5.62
2023-01-15T19:21:12.190Z,5.63
2023-01-15T19:23:38.528Z,5.63
2023-01-15T19:26:04.941Z,5.63
2023-01-15T19:28:31.247Z,5.62
2023-01-15T19:30:57.573Z,5.60
2023-01-15T19:33:25.330Z,5.61
2023-01-15T19:35:52.611Z,5.65
2023-01-15T19:38:19.980Z,5.59
2023-01-15T19:40:49.010Z,5.53
2023-01-15T19:43:15.310Z,5.49
2023-01-15T19:45:44.041Z,5.57
2023-01-15T19:48:11.995Z,5.48
2023-01-15T19:50:40.736Z,5.39
2023-01-15T19:53:07.366Z,5.35
2023-01-15T19:55:34.778Z,5.30
2023-01-15T19:58:03.989Z,5.25
2023-01-15T20:00:31.009Z,5.22
2023-01-15T20:02:57.636Z,5.17
2023-01-15T20:05:24.357Z,5.10
2023-01-15T20:07:52.001Z,5.06
2023-01-15T20:10:19.433Z,5.02
2023-01-15T20:12:45.741Z,4.97
2023-01-15T20:15:13.211Z,4.95
2023-01-15T20:17:39.555Z,4.94
2023-01-15T20:20:06.459Z,5.04
2023-01-15T20:22:32.762Z,5.04
2023-01-15T20:25:02.345Z,5.15
2023-01-15T20:27:30.165Z,5.25
2023-01-15T20:29:58.039Z,5.36
2023-01-15T20:32:24.373Z,5.50
2023-01-15T20:34:50.691Z,5.47
2023-01-15T20:37:17.023Z,5.58
2023-01-15T20:39:46.018Z,5.61
2023-01-15T20:42:13.637Z,5.68
2023-01-15T20:44:39.948Z,5.71
2023-01-15T20:47:06.268Z,5.74
2023-01-15T20:49:32.633Z,5.82
2023-01-15T20:51:59.000Z,5.93
2023-01-15T20:54:25.580Z,5.97
2023-01-15T20:56:52.072Z,5.98
2023-01-15T20:59:19.691Z,5.99
2023-01-15T21:01:46.161Z,6.16
2023-01-15T21:04:12.599Z,6.00
2023-01-15T21:06:38.989Z,5.97
2023-01-15T21:09:05.282Z,5.98
2023-01-15T21:11:31.632Z,5.95
2023-01-15T21:13:57.978Z,5.97
2023-01-15T21:16:25.656Z,5.97
2023-01-15T21:18:52.015Z,5.97
2023-01-15T21:21:19.424Z,5.97
2023-01-15T21:23:45.874Z,5.93
2023-01-15T21:26:12.751Z,5.95
2023-01-15T21:28:39.044Z,5.96
2023-01-15T21:31:06.326Z,5.96
2023-01-15T21:33:34.025Z,5.81
2023-01-15T21:36:04.726Z,5.79
2023-01-15T21:38:31.254Z,5.78
2023-01-15T21:40:57.582Z,5.77
2023-01-15T21:43:23.927Z,5.70
2023-01-15T21:45:50.253Z,5.68
2023-01-15T21:48:16.652Z,5.64
2023-01-15T21:50:44.337Z,5.65
2023-01-15T21:53:10.679Z,5.64
2023-01-15T21:55:36.976Z,5.66
2023-01-15T21:58:03.279Z,5.67
2023-01-15T22:00:29.603Z,5.69
2023-01-15T22:02:55.993Z,5.76
2023-01-15T22:05:22.493Z,5.96
2023-01-15T22:07:50.196Z,5.94
2023-01-15T22:10:16.565Z,5.95
2023-01-15T22:12:42.930Z,5.83
2023-01-15T22:15:09.762Z,5.83
2023-01-15T22:17:36.082Z,5.89
2023-01-15T22:20:02.435Z,5.91
2023-01-15T22:22:28.717Z,5.83
2023-01-15T22:24:56.414Z,5.86
2023-01-15T22:27:22.738Z,5.96
2023-01-15T22:29:49.042Z,5.88
2023-01-15T22:32:15.603Z,5.87
2023-01-15T22:34:42.199Z,5.78
2023-01-15T22:37:09.297Z,5.95
2023-01-15T22:39:35.647Z,5.89
2023-01-15T22:42:03.455Z,5.83
2023-01-15T22:44:29.857Z,6.05
2023-01-15T22:46:56.210Z,5.87
2023-01-15T22:49:22.968Z,5.99
2023-01-15T22:51:49.567Z,5.86
2023-01-15T22:54:16.610Z,5.86
2023-01-15T22:56:43.975Z,5.88
2023-01-15T22:59:11.990Z,5.70
2023-01-15T23:01:39.166Z,5.68
2023-01-15T23:04:07.983Z,5.61
2023-01-15T23:06:34.259Z,5.63
2023-01-15T23:09:01.337Z,5.76
2023-01-15T23:11:28.248Z,5.63
2023-01-15T23:13:54.549Z,5.63
2023-01-15T23:16:22.570Z,5.60
2023-01-15T23:18:49.260Z,5.46
2023-01-15T23:21:16.683Z,5.44
2023-01-15T23:23:42.994Z,5.37
2023-01-15T23:26:10.795Z,5.35
2023-01-15T23:28:37.102Z,5.39
2023-01-15T23:31:03.541Z,5.39
2023-01-15T23:33:31.263Z,5.37
2023-01-15T23:35:57.645Z,5.33
2023-01-15T23:38:23.953Z,5.31
2023-01-15T23:40:50.300Z,5.28
2023-01-15T23:43:16.899Z,5.39
2023-01-15T23:45:43.217Z,5.38
2023-01-15T23:48:10.212Z,5.41
2023-01-15T23:50:37.875Z,5.28
2023-01-15T23:53:04.186Z,5.24
2023-01-15T23:55:30.483Z,5.28
2023-01-15T23:57:57.077Z,5.22
